Arak, Iran

4:04 PM IRDT on August 23, 2014 (GMT +0430)
MALAYER AIRPORT | Change Station
CLOSE
Current Station
Airport
Location: MALAYER AIRPORT,
Elevation: 5659 ft
Nearby Weather Stations

Elev 5659 ft 34.28 °N, 48.82 °E | Updated 1 hour ago

Scattered Clouds
Scattered Clouds
91 °F
Feels Like 91 °F
N
7
Wind Variable Wind from ENE

Today
High -- | Low -- °F
--% Chance of Precip.
Yesterday
High -- | Low -- °F
Precip. -- in
6:37 AM 7:48 PM
Waning Crescent, 4% visible
Pressure 30.04 in
Visibility 6.2 miles
Clouds Scattered Clouds 4000 ft
Dew Point 36 °F
Humidity 14%
Rainfall 0.00 in
Snow Depth Not available.
UV 8 out of 12
Pollen Not available.
Air Quality Not available.
Flu Activity Not available.
METAR OIHM 231000Z 06006KT 9999 SCT040 33/02 Q1017

More Conditions Fewer Conditions

Pressure 30.04 in
Visibility 6.2 miles
Clouds Scattered Clouds 4000 ft
Dew Point 36 °F
Humidity 14%
Rainfall 0.00 in
Snow Depth Not available.
UV 8 out of 12
Pollen Not available.
Air Quality Not available.
Flu Activity Not available.
METAR OIHM 231000Z 06006KT 9999 SCT040 33/02 Q1017

More Conditions Fewer Conditions

10-Day Weather Forecast

Almanac

Astronomy

Aug. 23, 2014 Rise Set
Actual Time 6:37 AM IRDT 7:48 PM IRDT
Civil Twilight 6:11 AM IRDT 8:14 PM IRDT
Nautical Twilight 5:40 AM IRDT 8:45 PM IRDT
Astronomical Twilight 5:08 AM IRDT 9:17 PM IRDT
Moon 4:35 AM IRDT 6:18 PM IRDT
Length of Visible Light 14h 03m
Length of Day
13h 11m
Tomorrow will be 1m 58s shorter.
Waning Crescent, 4% of the Moon is Illuminated
Today
Waning Crescent
Aug 25
New
Sep 2
First Quarter
Sep 8
Full
Sep 15
Last Quarter

Yesterday's Extremes

Country Highs Country Lows

Community

WunderPhotos

Upload Photos

1,746,418 photos uploaded!

WunderBlogs® & News

By Dr. Jeff Masters
Director of Meteorology, Weather Underground
By Kari Strenfel
Meteorologist, Weather Underground
By Christopher C. Burt
Weather Historian, Weather Underground
August 23, 2014
August 23, 2014
August 23, 2014

Nearby

Snow Depth

Not available.

Earthquake Activity

City Distance Mag. Time & Date
No recent earthquake activity has been reported nearby.
Minimum magnitude displayed is 2.5.

Coastal Water Temperatures

Place Temperature
No Stations Reporting

Nearby Weather Stations